createdAt,value
2018-03-14T00:01:49.198Z,19.50
2018-03-14T00:04:17.814Z,21.63
2018-03-14T00:06:46.379Z,21.00
2018-03-14T00:09:14.940Z,19.87
2018-03-14T00:11:43.487Z,22.70
2018-03-14T00:14:12.068Z,21.50
2018-03-14T00:16:40.613Z,20.77
2018-03-14T00:19:09.155Z,22.07
2018-03-14T00:21:38.532Z,24.77
2018-03-14T00:24:08.260Z,15.80
2018-03-14T00:26:36.795Z,17.03
2018-03-14T00:29:05.352Z,19.37
2018-03-14T00:31:33.923Z,17.57
2018-03-14T00:34:03.236Z,20.83
2018-03-14T00:36:31.872Z,22.70
2018-03-14T00:39:00.430Z,24.87
2018-03-14T00:41:28.968Z,19.40
2018-03-14T00:43:58.335Z,22.30
2018-03-14T00:46:26.980Z,20.60
2018-03-14T00:48:55.519Z,22.13
2018-03-14T00:51:24.088Z,23.37
2018-03-14T00:53:52.707Z,25.57
2018-03-14T00:56:21.260Z,23.70
2018-03-14T00:58:50.660Z,21.83
2018-03-14T01:01:22.649Z,21.23
2018-03-14T01:03:52.254Z,26.77
2018-03-14T01:06:21.574Z,24.00
2018-03-14T01:08:54.020Z,25.03
2018-03-14T01:11:26.599Z,25.57
2018-03-14T01:13:59.419Z,23.93
2018-03-14T01:16:32.256Z,27.40
2018-03-14T01:19:00.838Z,24.13
2018-03-14T01:21:29.483Z,26.20
2018-03-14T01:24:03.656Z,22.27
2018-03-14T01:26:36.224Z,23.70
2018-03-14T01:29:05.926Z,24.03
2018-03-14T01:31:37.131Z,28.97
2018-03-14T01:34:07.600Z,24.47
2018-03-14T01:36:37.317Z,27.07
2018-03-14T01:39:09.769Z,23.90
2018-03-14T01:41:42.179Z,22.47
2018-03-14T01:44:14.431Z,26.60
2018-03-14T01:46:44.007Z,27.07
2018-03-14T01:49:20.002Z,30.27
2018-03-14T01:51:49.574Z,26.10
2018-03-14T01:54:19.163Z,26.77
2018-03-14T01:56:48.756Z,30.30
2018-03-14T01:59:18.323Z,30.50
2018-03-14T02:01:47.912Z,29.47
2018-03-14T02:04:17.502Z,25.67
2018-03-14T02:06:47.202Z,28.20
2018-03-14T02:09:15.788Z,27.03
2018-03-14T02:11:44.318Z,26.60
2018-03-14T02:14:12.910Z,27.90
2018-03-14T02:16:41.514Z,26.03
2018-03-14T02:19:10.055Z,31.40
2018-03-14T02:21:39.367Z,30.00
2018-03-14T02:24:08.868Z,22.73
2018-03-14T02:26:38.164Z,30.50
2018-03-14T02:29:07.473Z,29.83
2018-03-14T02:31:36.059Z,26.43
2018-03-14T02:34:05.366Z,27.37
2018-03-14T02:50:07.130Z,23.10
2018-03-14T02:52:35.472Z,19.60
2018-03-14T02:55:03.476Z,26.00
2018-03-14T02:57:31.836Z,26.33
2018-03-14T03:00:05.859Z,29.90
2018-03-14T03:02:36.578Z,26.13
2018-03-14T03:05:12.278Z,29.40
2018-03-14T03:07:43.773Z,37.50
2018-03-14T03:10:13.151Z,26.13
2018-03-14T03:12:43.524Z,28.57
2018-03-14T03:15:13.901Z,26.77
2018-03-14T03:17:43.144Z,24.53
2018-03-14T03:20:11.566Z,27.80
2018-03-14T03:22:39.901Z,26.80
2018-03-14T03:25:08.633Z,23.30
2018-03-14T03:27:37.770Z,23.07
2018-03-14T03:30:06.113Z,30.03
2018-03-14T03:32:35.251Z,34.67
2018-03-14T03:35:03.748Z,29.20
2018-03-14T03:37:32.105Z,29.47
2018-03-14T03:40:00.485Z,26.70
2018-03-14T03:42:28.855Z,29.33
2018-03-14T03:44:57.214Z,28.07
2018-03-14T03:47:25.596Z,31.40
2018-03-14T03:49:54.006Z,25.20
2018-03-14T03:52:22.354Z,30.33
2018-03-14T03:54:50.788Z,32.30
2018-03-14T03:57:19.155Z,33.27
2018-03-14T03:59:47.559Z,29.10
2018-03-14T04:02:16.922Z,30.33
2018-03-14T04:04:45.268Z,28.07
2018-03-14T04:07:13.627Z,32.73
2018-03-14T04:09:42.773Z,29.20
2018-03-14T04:12:11.122Z,28.67
2018-03-14T04:14:39.497Z,28.47
2018-03-14T04:17:09.096Z,22.70
2018-03-14T04:19:37.453Z,24.80
2018-03-14T04:22:05.788Z,30.97
2018-03-14T04:24:34.160Z,27.33
2018-03-14T04:27:02.520Z,28.37
2018-03-14T04:29:30.888Z,26.90
2018-03-14T04:31:59.261Z,30.33
2018-03-14T04:34:28.421Z,28.80
2018-03-14T04:36:56.763Z,28.07
2018-03-14T04:39:25.452Z,32.33
2018-03-14T04:41:53.809Z,22.60
2018-03-14T04:44:22.160Z,31.63
2018-03-14T04:46:51.296Z,23.30
2018-03-14T04:49:19.647Z,32.10
2018-03-14T04:51:48.748Z,29.70
2018-03-14T04:54:17.127Z,30.67
2018-03-14T04:56:45.509Z,29.00
2018-03-14T04:59:13.862Z,27.20
2018-03-14T05:01:43.002Z,29.40
2018-03-14T05:04:11.441Z,29.43
2018-03-14T05:06:40.545Z,25.90
2018-03-14T05:09:09.217Z,27.80
2018-03-14T05:11:38.361Z,30.50
2018-03-14T05:14:06.716Z,23.03
2018-03-14T05:16:35.076Z,28.73
2018-03-14T05:19:04.189Z,28.27
2018-03-14T05:21:32.600Z,29.20
2018-03-14T05:24:00.962Z,33.50
2018-03-14T05:26:29.636Z,23.63
2018-03-14T05:28:58.004Z,30.67
2018-03-14T05:31:26.356Z,21.27
2018-03-14T05:33:55.468Z,25.50
2018-03-14T05:36:23.842Z,25.67
2018-03-14T05:38:52.947Z,28.00
2018-03-14T05:41:21.323Z,27.17
2018-03-14T05:43:49.664Z,21.83
2018-03-14T05:46:18.009Z,26.73
2018-03-14T05:48:46.388Z,28.23
2018-03-14T05:51:14.741Z,26.23
2018-03-14T05:53:43.107Z,26.67
2018-03-14T05:56:11.463Z,28.67
2018-03-14T05:58:39.808Z,28.07
2018-03-14T06:01:08.181Z,25.90
2018-03-14T06:03:36.612Z,24.97
2018-03-14T06:06:05.720Z,24.70
2018-03-14T06:08:34.096Z,34.27
2018-03-14T06:11:02.432Z,28.23
2018-03-14T06:13:30.807Z,23.13
2018-03-14T06:15:59.220Z,26.73
2018-03-14T06:18:28.327Z,27.00
2018-03-14T06:20:56.694Z,23.80
2018-03-14T06:23:26.011Z,23.50
2018-03-14T06:25:54.376Z,28.10
2018-03-14T06:28:23.495Z,30.70
2018-03-14T06:30:51.663Z,37.03
2018-03-14T06:33:20.020Z,37.33
2018-03-14T06:35:48.484Z,31.77
2018-03-14T06:38:17.644Z,31.77
2018-03-14T06:40:45.999Z,26.77
2018-03-14T06:43:14.339Z,26.97
2018-03-14T06:45:43.464Z,20.87
2018-03-14T06:48:11.825Z,25.07
2018-03-14T06:50:40.953Z,23.13
2018-03-14T06:53:09.314Z,28.80
2018-03-14T06:55:37.741Z,21.30
2018-03-14T06:58:06.287Z,26.07
2018-03-14T07:00:46.009Z,27.07
2018-03-14T07:03:25.676Z,26.60
2018-03-14T07:06:14.405Z,25.20
2018-03-14T07:08:42.794Z,23.13
2018-03-14T07:11:11.153Z,28.20
2018-03-14T07:13:40.269Z,27.47
2018-03-14T07:16:08.305Z,24.47
2018-03-14T07:18:36.660Z,23.30
2018-03-14T07:21:04.682Z,29.77
2018-03-14T07:23:33.076Z,27.70
2018-03-14T07:26:01.423Z,27.33
2018-03-14T07:28:30.656Z,31.93
2018-03-14T07:30:59.033Z,30.27
2018-03-14T07:33:27.400Z,29.67
2018-03-14T07:35:55.743Z,26.63
2018-03-14T07:38:24.889Z,27.03
2018-03-14T07:40:53.449Z,27.13
2018-03-14T07:43:21.789Z,30.13
2018-03-14T07:45:50.158Z,34.13
2018-03-14T07:48:18.516Z,28.60
2018-03-14T07:50:46.852Z,22.43
2018-03-14T07:53:15.253Z,23.87
2018-03-14T07:55:43.609Z,23.30
2018-03-14T07:58:11.955Z,26.77
2018-03-14T08:00:40.330Z,27.50
2018-03-14T08:03:08.689Z,26.47
2018-03-14T08:05:37.032Z,24.90
2018-03-14T08:08:05.405Z,25.40
2018-03-14T08:10:33.811Z,27.30
2018-03-14T08:13:02.260Z,25.87
2018-03-14T08:15:30.632Z,33.73
2018-03-14T08:17:59.741Z,16.20
2018-03-14T08:20:28.409Z,25.17
2018-03-14T08:22:57.540Z,23.80
2018-03-14T08:25:25.892Z,22.97
2018-03-14T08:27:55.152Z,23.13
2018-03-14T08:30:24.565Z,20.30
2018-03-14T08:32:54.261Z,19.30
2018-03-14T08:35:23.437Z,21.70
2018-03-14T08:37:51.861Z,20.13
2018-03-14T08:40:20.964Z,15.70
2018-03-14T08:42:49.334Z,20.90
2018-03-14T08:45:18.434Z,25.00
2018-03-14T08:47:47.579Z,19.40
2018-03-14T08:50:15.951Z,24.83
2018-03-14T08:52:44.505Z,23.70
2018-03-14T08:55:12.864Z,20.23
2018-03-14T08:57:41.975Z,20.60
2018-03-14T09:00:10.708Z,19.03
2018-03-14T09:02:39.060Z,23.03
2018-03-14T09:05:07.403Z,20.93
2018-03-14T09:07:36.598Z,21.77
2018-03-14T09:10:05.704Z,17.20
2018-03-14T09:12:33.971Z,22.60
2018-03-14T09:15:03.077Z,11.93
2018-03-14T09:17:31.437Z,11.20
2018-03-14T09:20:00.544Z,11.57
2018-03-14T09:22:28.562Z,17.03
2018-03-14T09:24:57.352Z,13.70
2018-03-14T09:27:25.727Z,11.90
2018-03-14T09:29:54.067Z,14.00
2018-03-14T09:32:22.428Z,14.90
2018-03-14T09:34:50.776Z,15.60
2018-03-14T09:37:19.164Z,19.10
2018-03-14T09:39:47.714Z,13.00
2018-03-14T09:42:17.015Z,17.37
2018-03-14T09:44:45.364Z,13.80
2018-03-14T09:47:13.737Z,16.47
2018-03-14T09:49:42.119Z,12.60
2018-03-14T09:52:10.474Z,13.53
2018-03-14T09:54:38.814Z,12.97
2018-03-14T09:57:07.200Z,12.13
2018-03-14T09:59:35.725Z,13.57
2018-03-14T10:02:03.749Z,9.07
2018-03-14T10:04:32.096Z,11.20
2018-03-14T10:07:00.455Z,10.13
2018-03-14T10:09:28.810Z,9.83
2018-03-14T10:11:58.115Z,12.43
2018-03-14T10:14:27.339Z,10.77
2018-03-14T10:16:55.687Z,15.13
2018-03-14T10:19:24.800Z,12.80
2018-03-14T10:21:53.193Z,10.23
2018-03-14T10:24:21.733Z,15.90
2018-03-14T10:26:50.095Z,9.57
2018-03-14T10:29:18.437Z,10.13
2018-03-14T10:31:46.777Z,12.50
2018-03-14T10:34:15.902Z,8.03
2018-03-14T10:36:44.303Z,10.90
2018-03-14T10:39:12.796Z,7.50
2018-03-14T10:41:41.138Z,9.07
2018-03-14T10:44:09.472Z,13.13
2018-03-14T10:46:37.832Z,12.17
2018-03-14T10:49:06.176Z,11.20
2018-03-14T10:51:34.535Z,8.13
2018-03-14T10:54:02.912Z,6.20
2018-03-14T10:56:31.271Z,11.93
2018-03-14T10:59:00.384Z,9.93
2018-03-14T11:14:49.333Z,24.13
2018-03-14T11:17:17.689Z,9.73
2018-03-14T11:19:46.809Z,10.50
2018-03-14T11:22:15.176Z,9.77
2018-03-14T11:24:43.561Z,12.73
2018-03-14T11:27:11.905Z,12.40
2018-03-14T11:29:40.316Z,8.87
2018-03-14T11:32:08.656Z,10.40
2018-03-14T11:34:37.018Z,15.27
2018-03-14T11:37:05.376Z,9.00
2018-03-14T11:39:34.486Z,15.10
2018-03-14T11:42:02.899Z,11.80
2018-03-14T11:44:32.050Z,15.77
2018-03-14T11:47:00.404Z,10.20
2018-03-14T11:49:28.750Z,8.57
2018-03-14T11:51:57.861Z,7.70
2018-03-14T11:54:26.988Z,13.60
2018-03-14T11:56:55.336Z,12.20
2018-03-14T11:59:23.667Z,9.60
2018-03-14T12:01:52.136Z,11.53
2018-03-14T12:04:20.480Z,10.80
2018-03-14T12:06:48.846Z,8.07
2018-03-14T12:09:17.953Z,10.80
2018-03-14T12:11:46.324Z,9.27
2018-03-14T12:14:14.721Z,6.13
2018-03-14T12:16:43.189Z,12.90
2018-03-14T12:19:11.550Z,12.73
2018-03-14T12:21:40.653Z,9.70
2018-03-14T12:24:09.441Z,8.40
2018-03-14T12:26:37.810Z,11.97
2018-03-14T12:29:07.031Z,10.57
2018-03-14T12:31:35.667Z,13.63
2018-03-14T12:34:04.011Z,7.10
2018-03-14T12:36:32.351Z,6.50
2018-03-14T12:39:00.699Z,5.60
2018-03-14T12:41:29.846Z,7.43
2018-03-14T12:43:58.202Z,6.20
2018-03-14T12:46:27.419Z,7.90
2018-03-14T12:48:55.860Z,10.77
2018-03-14T12:51:24.996Z,4.37
2018-03-14T12:53:54.524Z,5.70
2018-03-14T12:56:22.890Z,7.40
2018-03-14T12:58:51.223Z,7.73
2018-03-14T13:01:20.001Z,12.10
2018-03-14T13:03:49.143Z,4.37
2018-03-14T13:06:17.482Z,4.93
2018-03-14T13:08:46.631Z,6.00
2018-03-14T13:11:15.790Z,6.13
2018-03-14T13:13:44.200Z,6.27
2018-03-14T13:18:47.795Z,7.83
2018-03-14T13:21:16.794Z,9.33
2018-03-14T13:23:45.482Z,11.50
2018-03-14T13:26:15.904Z,6.40
2018-03-14T13:28:44.287Z,8.20
2018-03-14T13:31:12.729Z,11.87
2018-03-14T13:33:41.191Z,9.60
2018-03-14T13:36:09.534Z,7.30
2018-03-14T13:38:38.082Z,9.43
2018-03-14T13:41:07.208Z,6.73
2018-03-14T13:43:36.568Z,10.83
2018-03-14T13:46:05.719Z,9.40
2018-03-14T13:48:34.072Z,12.57
2018-03-14T13:51:02.432Z,12.77
2018-03-14T13:53:31.191Z,14.30
2018-03-14T13:55:59.537Z,16.90
2018-03-14T13:58:27.901Z,14.20
2018-03-14T14:00:56.295Z,15.97
2018-03-14T14:03:24.674Z,16.67
2018-03-14T14:05:53.039Z,13.63
2018-03-14T14:08:21.375Z,7.90
2018-03-14T14:10:50.511Z,13.33
2018-03-14T14:13:18.860Z,12.33
2018-03-14T14:15:47.226Z,10.00
2018-03-14T14:18:16.436Z,10.17
2018-03-14T14:20:44.825Z,7.00
2018-03-14T14:23:13.486Z,10.03
2018-03-14T14:25:42.643Z,5.27
2018-03-14T14:28:10.987Z,2.90
2018-03-14T14:30:39.158Z,5.30
2018-03-14T14:33:07.492Z,5.67
2018-03-14T14:35:35.995Z,5.53
2018-03-14T14:38:04.148Z,4.53
2018-03-14T14:40:33.277Z,6.07
2018-03-14T14:43:01.620Z,3.53
2018-03-14T14:45:29.968Z,4.90
2018-03-14T14:47:58.370Z,4.00
2018-03-14T14:50:27.003Z,4.97
2018-03-14T14:52:55.340Z,4.93
2018-03-14T14:55:24.493Z,8.90
2018-03-14T14:57:53.112Z,5.87
2018-03-14T15:00:21.500Z,9.10
2018-03-14T15:02:50.606Z,7.33
2018-03-14T15:05:19.712Z,8.03
2018-03-14T15:07:48.118Z,7.80
2018-03-14T15:10:16.447Z,8.83
2018-03-14T15:12:45.583Z,7.60
2018-03-14T15:15:13.913Z,9.43
2018-03-14T15:17:43.072Z,6.83
2018-03-14T15:20:11.529Z,8.00
2018-03-14T15:22:41.138Z,10.70
2018-03-14T15:25:09.912Z,9.97
2018-03-14T15:27:39.014Z,13.57
2018-03-14T15:30:07.356Z,10.87
2018-03-14T15:32:35.723Z,8.20
2018-03-14T15:35:04.075Z,15.90
2018-03-14T15:37:32.509Z,22.57
2018-03-14T15:40:01.663Z,7.73
2018-03-14T15:42:30.039Z,14.77
2018-03-14T15:44:58.413Z,10.80
2018-03-14T15:47:26.765Z,13.43
2018-03-14T15:49:55.128Z,15.43
2018-03-14T15:52:23.472Z,13.47
2018-03-14T15:54:51.819Z,14.80
2018-03-14T15:57:20.180Z,12.67
2018-03-14T15:59:48.363Z,15.53
2018-03-14T16:02:16.727Z,10.00
2018-03-14T16:04:45.057Z,11.87
2018-03-14T16:07:13.400Z,13.33
2018-03-14T16:09:41.595Z,8.10
2018-03-14T16:12:09.954Z,11.40
2018-03-14T16:14:38.333Z,14.17
2018-03-14T16:17:06.352Z,12.37
2018-03-14T16:19:35.477Z,17.23
2018-03-14T16:22:03.853Z,15.80
2018-03-14T16:24:32.195Z,11.37
2018-03-14T16:27:01.340Z,12.27
2018-03-14T16:29:29.360Z,12.20
2018-03-14T16:31:58.471Z,13.80
2018-03-14T16:34:27.805Z,11.90
2018-03-14T16:36:56.149Z,15.07
2018-03-14T16:39:25.265Z,9.80
2018-03-14T16:41:53.618Z,11.27
2018-03-14T16:44:22.728Z,12.20
2018-03-14T16:46:51.091Z,10.70
2018-03-14T16:49:20.220Z,12.40
2018-03-14T16:51:48.600Z,12.13
2018-03-14T16:54:16.936Z,18.20
2018-03-14T16:56:46.041Z,9.93
2018-03-14T16:59:14.402Z,11.37
2018-03-14T17:01:48.255Z,12.23
2018-03-14T17:04:17.102Z,8.70
2018-03-14T17:06:47.993Z,12.07
2018-03-14T17:09:16.469Z,10.97
2018-03-14T17:11:44.933Z,10.57
2018-03-14T17:14:13.321Z,11.00
2018-03-14T17:16:41.711Z,10.93
2018-03-14T17:19:10.413Z,12.87
2018-03-14T17:21:38.783Z,11.60
2018-03-14T17:24:07.148Z,13.03
2018-03-14T17:26:36.616Z,11.40
2018-03-14T17:29:04.994Z,12.67
2018-03-14T17:31:35.071Z,9.10
2018-03-14T17:34:03.563Z,10.07
2018-03-14T17:36:31.989Z,9.83
2018-03-14T17:39:00.373Z,13.40
2018-03-14T17:41:28.717Z,13.93
2018-03-14T17:43:57.880Z,10.70
2018-03-14T17:46:26.225Z,13.10
2018-03-14T17:48:54.607Z,11.43
2018-03-14T17:51:24.348Z,10.63
2018-03-14T17:53:53.745Z,13.87
2018-03-14T17:56:23.108Z,9.53
2018-03-14T17:58:52.509Z,9.10
2018-03-14T18:01:22.315Z,9.83
2018-03-14T18:03:50.369Z,9.00
2018-03-14T18:06:19.504Z,9.90
2018-03-14T18:08:49.062Z,13.40
2018-03-14T18:11:18.226Z,12.37
2018-03-14T18:13:46.720Z,13.43
2018-03-14T18:16:15.401Z,12.23
2018-03-14T18:18:44.699Z,9.43
2018-03-14T18:21:13.292Z,12.80
2018-03-14T18:23:41.638Z,8.33
2018-03-14T18:26:09.975Z,11.27
2018-03-14T18:28:38.345Z,12.07
2018-03-14T18:31:08.164Z,9.90
2018-03-14T18:33:37.572Z,10.43
2018-03-14T18:36:06.944Z,7.20
2018-03-14T18:38:36.338Z,10.37
2018-03-14T18:41:05.781Z,11.80
2018-03-14T18:43:35.168Z,9.60
2018-03-14T18:46:05.179Z,11.50
2018-03-14T18:48:34.316Z,10.70
2018-03-14T18:51:03.716Z,12.03
2018-03-14T18:53:33.076Z,11.20
2018-03-14T18:56:02.443Z,13.13
2018-03-14T18:58:31.843Z,9.60
2018-03-14T19:01:01.223Z,12.33
2018-03-14T19:03:30.588Z,12.40
2018-03-14T19:05:59.982Z,12.83
2018-03-14T19:08:29.419Z,13.70
2018-03-14T19:10:58.772Z,8.03
2018-03-14T19:13:28.168Z,9.13
2018-03-14T19:15:57.547Z,11.80
2018-03-14T19:18:27.009Z,13.47
2018-03-14T19:20:56.704Z,15.93
2018-03-14T19:23:26.108Z,12.17
2018-03-14T19:25:55.493Z,10.43
2018-03-14T19:28:24.883Z,8.17
2018-03-14T19:30:54.283Z,8.50
2018-03-14T19:33:23.672Z,10.63
2018-03-14T19:35:53.086Z,10.10
2018-03-14T19:38:22.668Z,10.50
2018-03-14T19:40:52.065Z,10.77
2018-03-14T19:43:21.451Z,9.27
2018-03-14T19:45:50.818Z,8.33
2018-03-14T19:48:20.184Z,10.20
2018-03-14T19:50:49.598Z,10.33
2018-03-14T19:53:19.032Z,9.70
2018-03-14T19:55:48.430Z,8.97
2018-03-14T19:58:17.914Z,11.20
2018-03-14T20:00:47.302Z,10.77
2018-03-14T20:03:16.693Z,9.20
2018-03-14T20:05:46.059Z,10.60
2018-03-14T20:08:15.431Z,9.20
2018-03-14T20:10:44.802Z,9.27
2018-03-14T20:13:14.183Z,7.80
2018-03-14T20:15:43.386Z,9.83
2018-03-14T20:18:11.723Z,11.07
2018-03-14T20:20:40.093Z,8.50
2018-03-14T20:23:09.251Z,14.93
2018-03-14T20:25:37.592Z,7.60
2018-03-14T20:28:06.003Z,8.83
2018-03-14T20:30:34.390Z,10.50
2018-03-14T20:33:02.764Z,10.70
2018-03-14T20:35:31.154Z,7.93
2018-03-14T20:37:59.532Z,8.77
2018-03-14T20:40:27.904Z,10.53
2018-03-14T20:42:56.263Z,10.27
2018-03-14T20:45:25.761Z,8.50
2018-03-14T20:47:54.160Z,5.60
2018-03-14T20:50:22.528Z,10.47
2018-03-14T20:52:50.932Z,8.27
2018-03-14T20:55:19.358Z,5.87
2018-03-14T20:57:47.701Z,7.27
2018-03-14T21:00:16.042Z,6.30
2018-03-14T21:02:45.459Z,5.97
2018-03-14T21:05:14.910Z,11.17
2018-03-14T21:07:44.278Z,9.50
2018-03-14T21:10:12.644Z,9.27
2018-03-14T21:12:42.000Z,14.77
2018-03-14T21:15:11.407Z,8.30
2018-03-14T21:17:40.873Z,7.90
2018-03-14T21:20:10.257Z,9.80
2018-03-14T21:22:39.672Z,12.30
2018-03-14T21:25:09.146Z,11.37
2018-03-14T21:27:38.582Z,11.53
2018-03-14T21:30:07.951Z,9.53
2018-03-14T21:32:37.372Z,14.43
2018-03-14T21:35:06.731Z,11.30
2018-03-14T21:37:36.111Z,12.33
2018-03-14T21:40:05.183Z,13.90
2018-03-14T21:42:34.736Z,12.80
2018-03-14T21:45:03.775Z,10.87
2018-03-14T21:47:33.184Z,8.80
2018-03-14T21:50:02.549Z,11.10
2018-03-14T21:52:32.730Z,7.93
2018-03-14T21:55:02.098Z,11.60
2018-03-14T21:57:31.484Z,14.33
2018-03-14T21:59:59.856Z,10.67
2018-03-14T22:02:29.437Z,16.10
2018-03-14T22:04:58.902Z,12.20
2018-03-14T22:07:28.392Z,10.20
2018-03-14T22:09:57.768Z,13.57
2018-03-14T22:12:26.200Z,14.67
2018-03-14T22:14:55.312Z,10.00
2018-03-14T22:17:24.871Z,15.30
2018-03-14T22:19:53.240Z,8.63
2018-03-14T22:22:22.889Z,11.03
2018-03-14T22:24:52.442Z,19.70
2018-03-14T22:27:21.915Z,16.10
2018-03-14T22:29:51.473Z,16.40
2018-03-14T22:32:20.863Z,19.67
2018-03-14T22:34:50.340Z,12.40
2018-03-14T22:37:19.782Z,13.47
2018-03-14T22:39:49.170Z,15.57
2018-03-14T22:42:18.538Z,14.40
2018-03-14T22:44:47.902Z,14.07
2018-03-14T22:47:17.028Z,17.00
2018-03-14T22:49:45.565Z,21.73
2018-03-14T22:52:15.429Z,16.53
2018-03-14T22:54:43.432Z,18.00
2018-03-14T22:57:11.797Z,15.70
2018-03-14T22:59:40.248Z,16.20
2018-03-14T23:02:08.597Z,13.10
2018-03-14T23:04:37.993Z,15.60
2018-03-14T23:07:07.363Z,17.07
2018-03-14T23:09:36.761Z,16.40
2018-03-14T23:12:05.104Z,11.93
2018-03-14T23:14:33.471Z,13.60
2018-03-14T23:17:01.895Z,16.50
2018-03-14T23:19:30.237Z,13.73
2018-03-14T23:21:58.601Z,18.33
2018-03-14T23:24:27.912Z,19.77
2018-03-14T23:26:56.256Z,16.57
2018-03-14T23:29:24.625Z,15.87
2018-03-14T23:31:53.063Z,16.50
2018-03-14T23:34:21.448Z,12.53
2018-03-14T23:36:50.937Z,16.80
2018-03-14T23:39:19.530Z,24.03
2018-03-14T23:41:47.890Z,18.57
2018-03-14T23:44:16.223Z,15.20
2018-03-14T23:46:44.662Z,13.70
2018-03-14T23:49:13.008Z,13.37
2018-03-14T23:51:41.384Z,15.30
2018-03-14T23:54:10.164Z,18.50
2018-03-14T23:56:39.292Z,16.23
2018-03-14T23:59:07.702Z,13.30
